MiSS Sarah — WDE9595 — position and weather

sailwx.info

Track history (hours):
 
Tides and Currents Weather Stations Pressure Air Temp Water Temp Dewpoint Dewpoint Depression Visibility Wind Speed Wind Dir Waves Ship Positions

MiSS Sarah

Owner: Higman Barge Lines, Inc, Orange, TX. More information available from US FCC via Universal Licensing System and Coast Guard Vessel Documentation Center.

Last reported at 2017-Feb-25 15:33 UTC. Time now 2017-Feb-28 01:32 UTC.
Position N 29°34' W 090°34'.

Length 24 m; draft 9 m.

Type: Towing. MMSI: 367419040.

Date/timePositionNaut miles runAvg speedWind from/ knotsBaromVisibWave heightAir tempDewpointWater temp
2017-Feb-25 15:33N 29°34' W 090°34'6 6.3
2017-Feb-25 14:33N 29°36' W 090°40'3 3.3
2017-Feb-25 13:33N 29°34' W 090°43'6 6.2
2017-Feb-25 12:33N 29°32' W 090°50'54 4.0
2017-Feb-24 23:13N 29°48' W 091°49'3 4.9
2017-Feb-24 22:33N 29°51' W 091°52'6 6.4
2017-Feb-24 21:33N 29°50' W 091°59'6 6.4
2017-Feb-24 20:33N 29°48' W 092°06'6 5.6
2017-Feb-24 19:33N 29°47' W 092°13'3 3.0
2017-Feb-24 18:33N 29°48' W 092°16'0 0.3
2017-Feb-24 17:33N 29°49' W 092°16'2 2.5
2017-Feb-24 16:33N 29°50' W 092°18'6 5.9
2017-Feb-24 15:33N 29°53' W 092°24'32 5.9
2017-Feb-24 10:06N 29°56' W 093°01'3 5.9
2017-Feb-24 09:33N 29°56' W 093°05'5 5.4
2017-Feb-24 08:33N 29°57' W 093°11'6 5.7
2017-Feb-24 07:33N 30°02' W 093°15'4 4.4
2017-Feb-24 06:33N 30°05' W 093°18'1 0.3
2017-Feb-24 04:33N 30°06' W 093°18'1 0.3
2017-Feb-24 02:33N 30°06' W 093°19'9 4.5
2017-Feb-24 00:33N 30°04' W 093°29'13 4.0
2017-Feb-23 21:27N 30°05' W 093°43'1 0.3
2017-Feb-23 19:15N 30°05' W 093°44'0 0.0
2017-Feb-23 18:12N 30°05' W 093°44'0 0.0
2017-Feb-23 17:07N 30°05' W 093°44'0 0.0
2017-Feb-23 15:33N 30°05' W 093°44'0 0.0
2017-Feb-23 14:23N 30°05' W 093°44'0 0.0
2017-Feb-23 12:33N 30°05' W 093°44'0 0.0
2017-Feb-23 11:13N 30°05' W 093°44'0 0.0
2017-Feb-23 10:33N 30°05' W 093°44'0 0.0
2017-Feb-23 09:33N 30°05' W 093°44'0 0.0
2017-Feb-23 08:27N 30°05' W 093°44'0 0.0
2017-Feb-23 07:33N 30°05' W 093°44'0 0.0
2017-Feb-23 06:33N 30°05' W 093°44'0 0.0
2017-Feb-23 05:33N 30°05' W 093°44'0 0.0
2017-Feb-23 04:33N 30°05' W 093°44'0 0.0
2017-Feb-23 03:33N 30°05' W 093°44'0 0.4
2017-Feb-23 02:33N 30°05' W 093°44'0 0.3
2017-Feb-23 01:17N 30°05' W 093°44'0 0.0
2017-Feb-22 13:33N 30°05' W 093°44'1 0.4
2017-Feb-22 12:05N 30°05' W 093°43'0 0.0
2017-Feb-22 10:06N 30°05' W 093°43'0 0.0
2017-Feb-22 09:33N 30°05' W 093°43'0 0.0
2017-Feb-22 08:33N 30°05' W 093°43'0 0.0
2017-Feb-22 07:33N 30°05' W 093°43'0 0.0
2017-Feb-22 06:33N 30°05' W 093°43'0 0.0
2017-Feb-22 05:33N 30°05' W 093°43'0 0.0
2017-Feb-22 04:33N 30°05' W 093°43'0 0.0
2017-Feb-22 03:29N 30°05' W 093°43'0 0.1
2017-Feb-22 02:33N 30°05' W 093°43'0 0.0
2017-Feb-22 01:31N 30°05' W 093°43'0 0.0
2017-Feb-22 00:21N 30°05' W 093°43'0 0.0
2017-Feb-20 08:23N 30°05' W 093°43'0 0.0
2017-Feb-20 07:25N 30°05' W 093°43'2 0.3
2017-Feb-20 02:18N 30°03' W 093°43'6 7.6
2017-Feb-20 01:33N 30°04' W 093°36'7 7.2
2017-Feb-20 00:33N 30°04' W 093°28'7 7.1
2017-Feb-19 23:33N 30°05' W 093°20'4 3.8
2017-Feb-19 22:33N 30°03' W 093°16'5 4.7
2017-Feb-19 21:33N 29°59' W 093°13'2 2.0
2017-Feb-19 20:33N 30°01' W 093°14'5 5.1
2017-Feb-19 19:33N 30°05' W 093°18'1 1.4
2017-Feb-19 18:33N 30°06' W 093°19'0 0.0
2017-Feb-19 17:33N 30°06' W 093°19'1 0.6
2017-Feb-19 16:33N 30°06' W 093°19'5 4.6
2017-Feb-19 15:33N 30°04' W 093°24'6 6.1
2017-Feb-19 14:33N 30°04' W 093°31'8 3.6
2017-Feb-19 12:16N 30°04' W 093°41'0 0.0
2017-Feb-19 11:29N 30°04' W 093°41'0 0.0
2017-Feb-19 09:16N 30°04' W 093°41'0 0.0
2017-Feb-19 07:17N 30°04' W 093°41'0 0.0
2017-Feb-19 06:31N 30°04' W 093°41'0 0.0
2017-Feb-19 05:33N 30°04' W 093°41'2 2.1
2017-Feb-19 04:30N 30°03' W 093°43'  
Track history (hours):
 
Tides and Currents Weather Stations Pressure Air Temp Water Temp Dewpoint Dewpoint Depression Visibility Wind Speed Wind Dir Waves Ship Positions

MiSS Sarah

Owner: Higman Barge Lines, Inc, Orange, TX. More information available from US FCC via Universal Licensing System and Coast Guard Vessel Documentation Center.

Last reported at 2017-Feb-25 15:33 UTC. Time now 2017-Feb-28 01:32 UTC.
Position N 29°34' W 090°34'.

Length 24 m; draft 9 m.

Type: Towing. MMSI: 367419040.

Date/timePositionNaut miles runAvg speedWind from/ knotsBaromVisibWave heightAir tempDewpointWater temp
2017-Feb-25 15:33N 29°34' W 090°34'6 6.3
2017-Feb-25 14:33N 29°36' W 090°40'3 3.3
2017-Feb-25 13:33N 29°34' W 090°43'6 6.2
2017-Feb-25 12:33N 29°32' W 090°50'54 4.0
2017-Feb-24 23:13N 29°48' W 091°49'3 4.9
2017-Feb-24 22:33N 29°51' W 091°52'6 6.4
2017-Feb-24 21:33N 29°50' W 091°59'6 6.4
2017-Feb-24 20:33N 29°48' W 092°06'6 5.6
2017-Feb-24 19:33N 29°47' W 092°13'3 3.0
2017-Feb-24 18:33N 29°48' W 092°16'0 0.3
2017-Feb-24 17:33N 29°49' W 092°16'2 2.5
2017-Feb-24 16:33N 29°50' W 092°18'6 5.9
2017-Feb-24 15:33N 29°53' W 092°24'32 5.9
2017-Feb-24 10:06N 29°56' W 093°01'3 5.9
2017-Feb-24 09:33N 29°56' W 093°05'5 5.4
2017-Feb-24 08:33N 29°57' W 093°11'6 5.7
2017-Feb-24 07:33N 30°02' W 093°15'4 4.4
2017-Feb-24 06:33N 30°05' W 093°18'1 0.3
2017-Feb-24 04:33N 30°06' W 093°18'1 0.3
2017-Feb-24 02:33N 30°06' W 093°19'9 4.5
2017-Feb-24 00:33N 30°04' W 093°29'13 4.0
2017-Feb-23 21:27N 30°05' W 093°43'1 0.3
2017-Feb-23 19:15N 30°05' W 093°44'0 0.0
2017-Feb-23 18:12N 30°05' W 093°44'0 0.0
2017-Feb-23 17:07N 30°05' W 093°44'0 0.0
2017-Feb-23 15:33N 30°05' W 093°44'0 0.0
2017-Feb-23 14:23N 30°05' W 093°44'0 0.0
2017-Feb-23 12:33N 30°05' W 093°44'0 0.0
2017-Feb-23 11:13N 30°05' W 093°44'0 0.0
2017-Feb-23 10:33N 30°05' W 093°44'0 0.0
2017-Feb-23 09:33N 30°05' W 093°44'0 0.0
2017-Feb-23 08:27N 30°05' W 093°44'0 0.0
2017-Feb-23 07:33N 30°05' W 093°44'0 0.0
2017-Feb-23 06:33N 30°05' W 093°44'0 0.0
2017-Feb-23 05:33N 30°05' W 093°44'0 0.0
2017-Feb-23 04:33N 30°05' W 093°44'0 0.0
2017-Feb-23 03:33N 30°05' W 093°44'0 0.4
2017-Feb-23 02:33N 30°05' W 093°44'0 0.3
2017-Feb-23 01:17N 30°05' W 093°44'0 0.0
2017-Feb-22 13:33N 30°05' W 093°44'1 0.4
2017-Feb-22 12:05N 30°05' W 093°43'0 0.0
2017-Feb-22 10:06N 30°05' W 093°43'0 0.0
2017-Feb-22 09:33N 30°05' W 093°43'0 0.0
2017-Feb-22 08:33N 30°05' W 093°43'0 0.0
2017-Feb-22 07:33N 30°05' W 093°43'0 0.0
2017-Feb-22 06:33N 30°05' W 093°43'0 0.0
2017-Feb-22 05:33N 30°05' W 093°43'0 0.0
2017-Feb-22 04:33N 30°05' W 093°43'0 0.0
2017-Feb-22 03:29N 30°05' W 093°43'0 0.1
2017-Feb-22 02:33N 30°05' W 093°43'0 0.0
2017-Feb-22 01:31N 30°05' W 093°43'0 0.0
2017-Feb-22 00:21N 30°05' W 093°43'0 0.0
2017-Feb-20 08:23N 30°05' W 093°43'0 0.0
2017-Feb-20 07:25N 30°05' W 093°43'2 0.3
2017-Feb-20 02:18N 30°03' W 093°43'6 7.6
2017-Feb-20 01:33N 30°04' W 093°36'7 7.2
2017-Feb-20 00:33N 30°04' W 093°28'7 7.1
2017-Feb-19 23:33N 30°05' W 093°20'4 3.8
2017-Feb-19 22:33N 30°03' W 093°16'5 4.7
2017-Feb-19 21:33N 29°59' W 093°13'2 2.0
2017-Feb-19 20:33N 30°01' W 093°14'5 5.1
2017-Feb-19 19:33N 30°05' W 093°18'1 1.4
2017-Feb-19 18:33N 30°06' W 093°19'0 0.0
2017-Feb-19 17:33N 30°06' W 093°19'1 0.6
2017-Feb-19 16:33N 30°06' W 093°19'5 4.6
2017-Feb-19 15:33N 30°04' W 093°24'6 6.1
2017-Feb-19 14:33N 30°04' W 093°31'8 3.6
2017-Feb-19 12:16N 30°04' W 093°41'0 0.0
2017-Feb-19 11:29N 30°04' W 093°41'0 0.0
2017-Feb-19 09:16N 30°04' W 093°41'0 0.0
2017-Feb-19 07:17N 30°04' W 093°41'0 0.0
2017-Feb-19 06:31N 30°04' W 093°41'0 0.0
2017-Feb-19 05:33N 30°04' W 093°41'2 2.1
2017-Feb-19 04:30N 30°03' W 093°43'  

Dump ship's entire track history